map of MYW home
MYW - Airport
Location
City:  Mtwara, Mtwara, Tanzania
Name:Mtwara Airport
ICAO:HTMT
IATA:MYW

Details
Type:Airport (Aerodrome, Airfield)
Use:Public/Civil, International (customs port of entry)
Latitude:1020'21"S (-10.339057)
Longitude:4010'54"E (40.181781)
Datum:WGS 1984
Elevation:371 ft (113 m)
Variation:4.53W (WMM2015 magnetic declination)
-0.01 annual change
Runways:2
Longest:7410 × 98 ft (2259 × 30 m), paved

Time
Time Zone:UTC+3
Local Time:

Weather
METAR:HTMT 220300Z 16015KT 9999 FEW017 22/18 Q1017
TAF:HTMT 211100Z 2112/2212 13015KT 9999 SCT024
BECMG 2120/2122 00000KT
BECMG 2208/2210 18010KT BKN021

Related Locations
Nearby:
Farthest:ITO: 11240 mi / 18089 km
Hilo [Hilo Intl], Hawaii, HI, US

Find:

   beyond  
but within

Other Information
Maps:
NOTAMs:
Links:
Sources:

  
  • flag of Tanzania
  

Sectional Chart

Flight Planning
at skyvector.com

Satellite Image

Google Maps Satellite view

 

Copyright © 2004-2018 Karl L. Swartz. All rights reserved.
The Great Circle Mapper name and logo are trademarks of the Great Circle Mapper.
All other trademarks mentioned herein belong to their respective owners.
Please see credits for attibutions and further copyright information.

  Follow gcmap on Facebook Follow gcmap on Twitter Follow gcmap on Google+ GCmap on LinkedIn

hCard Microformat

Geo Microformat